createdAt,value
2023-04-30T00:00:09.821Z,4.63
2023-04-30T00:02:39.728Z,3.65
2023-04-30T00:05:07.698Z,3.78
2023-04-30T00:07:35.182Z,3.95
2023-04-30T00:10:02.844Z,3.90
2023-04-30T00:12:30.086Z,3.97
2023-04-30T00:14:57.280Z,3.25
2023-04-30T00:17:24.470Z,3.28
2023-04-30T00:19:52.177Z,3.75
2023-04-30T00:22:19.530Z,8.10
2023-04-30T00:24:46.657Z,7.93
2023-04-30T00:27:13.737Z,8.95
2023-04-30T00:29:41.625Z,6.55
2023-04-30T00:32:09.191Z,3.90
2023-04-30T00:34:36.440Z,4.38
2023-04-30T00:37:03.882Z,5.00
2023-04-30T00:39:30.873Z,4.22
2023-04-30T00:41:58.055Z,3.88
2023-04-30T00:44:25.134Z,4.25
2023-04-30T00:46:52.325Z,3.72
2023-04-30T00:49:19.393Z,3.72
2023-04-30T00:51:46.910Z,3.72
2023-04-30T00:54:14.843Z,4.13
2023-04-30T00:56:42.150Z,4.40
2023-04-30T00:59:09.454Z,5.07
2023-04-30T01:01:37.556Z,3.88
2023-04-30T01:04:05.435Z,4.78
2023-04-30T01:06:33.292Z,4.38
2023-04-30T01:09:00.563Z,5.28
2023-04-30T01:11:59.893Z,4.07
2023-04-30T01:14:56.207Z,4.10
2023-04-30T01:17:32.353Z,4.28
2023-04-30T01:20:00.438Z,3.58
2023-04-30T01:22:27.661Z,4.22
2023-04-30T01:25:19.890Z,3.78
2023-04-30T01:28:03.755Z,3.65
2023-04-30T01:30:32.750Z,3.97
2023-04-30T01:32:59.854Z,4.25
2023-04-30T01:35:44.799Z,5.25
2023-04-30T01:38:26.457Z,5.43
2023-04-30T01:41:32.134Z,10.35
2023-04-30T01:44:17.937Z,7.38
2023-04-30T01:46:56.492Z,6.35
2023-04-30T01:49:30.634Z,4.95
2023-04-30T01:52:12.197Z,4.75
2023-04-30T01:54:56.685Z,5.03
2023-04-30T01:57:38.736Z,5.50
2023-04-30T02:00:10.616Z,4.28
2023-04-30T02:02:40.516Z,4.70
2023-04-30T02:05:07.996Z,8.32
2023-04-30T02:07:44.875Z,6.32
2023-04-30T02:10:16.637Z,4.60
2023-04-30T02:12:43.628Z,4.72
2023-04-30T02:15:11.153Z,4.78
2023-04-30T02:17:40.870Z,8.07
2023-04-30T02:20:09.181Z,5.50
2023-04-30T02:22:37.475Z,9.57
2023-04-30T02:25:05.029Z,8.55
2023-04-30T02:27:33.262Z,5.78
2023-04-30T02:30:00.981Z,5.43
2023-04-30T02:32:28.047Z,3.95
2023-04-30T02:34:55.243Z,4.50
2023-04-30T02:37:22.866Z,3.85
2023-04-30T02:39:52.646Z,4.43
2023-04-30T02:42:19.994Z,4.25
2023-04-30T02:44:47.047Z,4.60
2023-04-30T02:47:14.174Z,3.75
2023-04-30T02:49:41.442Z,4.53
2023-04-30T02:52:10.135Z,3.90
2023-04-30T02:54:43.260Z,3.60
2023-04-30T02:57:10.937Z,3.80
2023-04-30T02:59:39.085Z,3.50
2023-04-30T03:02:06.252Z,4.22
2023-04-30T03:04:33.323Z,4.25
2023-04-30T03:07:00.647Z,5.40
2023-04-30T03:09:27.834Z,5.20
2023-04-30T03:11:54.771Z,7.03
2023-04-30T03:14:21.741Z,11.43
2023-04-30T03:16:49.433Z,35.33
2023-04-30T03:19:16.825Z,32.63
2023-04-30T03:21:43.896Z,18.02
2023-04-30T03:24:10.997Z,7.88
2023-04-30T03:26:38.272Z,4.70
2023-04-30T03:29:08.048Z,4.45
2023-04-30T03:31:35.157Z,4.88
2023-04-30T03:34:02.283Z,4.93
2023-04-30T03:36:29.208Z,6.03
2023-04-30T03:38:56.286Z,7.18
2023-04-30T03:41:24.461Z,6.15
2023-04-30T03:43:51.507Z,4.25
2023-04-30T03:46:18.923Z,5.20
2023-04-30T03:48:46.424Z,4.28
2023-04-30T03:51:13.468Z,5.38
2023-04-30T03:53:40.829Z,5.93
2023-04-30T03:56:08.284Z,8.65
2023-04-30T03:58:35.308Z,5.45
2023-04-30T04:01:02.347Z,8.52
2023-04-30T04:03:29.588Z,14.35
2023-04-30T04:05:56.793Z,17.55
2023-04-30T04:08:24.257Z,12.40
2023-04-30T04:10:51.418Z,10.73
2023-04-30T04:13:19.029Z,6.63
2023-04-30T04:15:46.166Z,6.70
2023-04-30T04:18:13.233Z,5.20
2023-04-30T04:20:40.572Z,5.95
2023-04-30T04:23:07.593Z,5.00
2023-04-30T04:25:35.464Z,4.63
2023-04-30T04:28:02.589Z,8.20
2023-04-30T04:30:29.788Z,11.85
2023-04-30T04:32:57.796Z,7.22
2023-04-30T04:35:24.866Z,6.00
2023-04-30T04:37:51.899Z,5.45
2023-04-30T04:40:19.022Z,6.00
2023-04-30T04:42:45.957Z,6.05
2023-04-30T04:45:13.155Z,6.47
2023-04-30T04:47:40.372Z,7.05
2023-04-30T04:50:08.040Z,5.55
2023-04-30T04:52:35.360Z,8.63
2023-04-30T04:55:05.055Z,5.07
2023-04-30T04:57:33.344Z,5.20
2023-04-30T05:00:06.694Z,7.57
2023-04-30T05:02:33.808Z,4.60
2023-04-30T05:05:01.883Z,5.78
2023-04-30T05:07:30.086Z,5.30
2023-04-30T05:09:57.342Z,4.00
2023-04-30T05:12:24.710Z,4.97
2023-04-30T05:14:51.777Z,4.72
2023-04-30T05:17:18.821Z,5.25
2023-04-30T05:19:47.716Z,4.25
2023-04-30T05:22:14.776Z,4.85
2023-04-30T05:24:41.937Z,4.85
2023-04-30T05:27:09.347Z,5.15
2023-04-30T05:29:36.468Z,4.53
2023-04-30T05:32:03.666Z,4.47
2023-04-30T05:34:30.908Z,4.25
2023-04-30T05:36:57.869Z,4.28
2023-04-30T05:39:24.921Z,4.43
2023-04-30T05:41:53.372Z,3.92
2023-04-30T05:44:20.622Z,4.45
2023-04-30T05:46:47.588Z,3.63
2023-04-30T05:49:14.729Z,4.25
2023-04-30T05:51:41.888Z,4.50
2023-04-30T05:54:08.967Z,2.90
2023-04-30T05:56:36.102Z,3.30
2023-04-30T05:59:03.217Z,3.92
2023-04-30T06:01:30.315Z,4.10
2023-04-30T06:03:58.730Z,4.00
2023-04-30T06:06:25.963Z,4.97
2023-04-30T06:08:53.575Z,4.10
2023-04-30T06:11:21.243Z,3.65
2023-04-30T06:13:49.808Z,3.70
2023-04-30T06:16:19.692Z,3.90
2023-04-30T06:18:46.677Z,4.05
2023-04-30T06:21:13.612Z,3.90
2023-04-30T06:23:40.649Z,3.40
2023-04-30T06:26:09.864Z,3.97
2023-04-30T06:28:36.967Z,4.15
2023-04-30T06:31:04.204Z,3.97
2023-04-30T06:33:31.452Z,4.32
2023-04-30T06:35:58.478Z,3.90
2023-04-30T06:38:25.780Z,4.60
2023-04-30T06:40:53.032Z,4.53
2023-04-30T06:43:20.058Z,3.60
2023-04-30T06:45:47.164Z,3.25
2023-04-30T06:48:14.473Z,3.00
2023-04-30T06:50:45.251Z,4.05
2023-04-30T06:53:12.919Z,3.95
2023-04-30T06:55:41.211Z,3.30
2023-04-30T06:58:08.421Z,3.30
2023-04-30T07:00:35.559Z,3.50
2023-04-30T07:03:02.867Z,3.55
2023-04-30T07:05:33.395Z,3.60
2023-04-30T07:08:03.573Z,3.53
2023-04-30T07:10:31.746Z,3.42
2023-04-30T07:12:59.466Z,3.50
2023-04-30T07:15:26.544Z,3.45
2023-04-30T07:17:53.747Z,3.38
2023-04-30T07:20:21.018Z,3.25
2023-04-30T07:22:48.034Z,3.45
2023-04-30T07:25:15.345Z,3.47
2023-04-30T07:27:42.451Z,3.65
2023-04-30T07:30:10.802Z,4.00
2023-04-30T07:32:40.021Z,3.38
2023-04-30T07:35:07.635Z,3.63
2023-04-30T07:37:35.943Z,3.17
2023-04-30T07:40:04.498Z,3.50
2023-04-30T07:42:31.619Z,3.03
2023-04-30T07:44:58.762Z,3.90
2023-04-30T07:47:26.054Z,3.72
2023-04-30T07:49:53.526Z,3.88
2023-04-30T07:52:20.782Z,2.97
2023-04-30T07:54:48.152Z,3.45
2023-04-30T07:57:15.192Z,3.20
2023-04-30T07:59:42.217Z,4.15
2023-04-30T08:02:09.881Z,3.85
2023-04-30T08:04:36.911Z,3.03
2023-04-30T08:07:04.847Z,4.00
2023-04-30T08:09:32.329Z,2.97
2023-04-30T08:11:59.418Z,3.78
2023-04-30T08:14:26.451Z,3.92
2023-04-30T08:16:53.649Z,3.65
2023-04-30T08:19:20.734Z,3.53
2023-04-30T08:21:47.850Z,3.90
2023-04-30T08:24:14.783Z,3.08
2023-04-30T08:26:41.981Z,2.53
2023-04-30T08:29:09.081Z,2.35
2023-04-30T08:31:36.762Z,3.00
2023-04-30T08:34:03.788Z,2.80
2023-04-30T08:36:31.047Z,2.80
2023-04-30T08:38:57.972Z,2.60
2023-04-30T08:41:27.228Z,2.42
2023-04-30T08:43:54.179Z,2.45
2023-04-30T08:46:23.502Z,2.70
2023-04-30T08:48:50.911Z,2.20
2023-04-30T08:51:18.074Z,2.78
2023-04-30T08:53:46.445Z,2.05
2023-04-30T08:56:13.460Z,2.70
2023-04-30T08:58:41.312Z,2.42
2023-04-30T09:01:10.355Z,2.65
2023-04-30T09:03:38.229Z,2.60
2023-04-30T09:06:05.337Z,2.70
2023-04-30T09:08:51.446Z,2.38
2023-04-30T09:11:22.822Z,2.67
2023-04-30T09:13:54.772Z,2.60
2023-04-30T09:16:23.020Z,2.40
2023-04-30T09:18:51.065Z,1.80
2023-04-30T09:21:32.050Z,1.90
2023-04-30T09:24:01.842Z,1.63
2023-04-30T09:26:39.272Z,1.50
2023-04-30T09:29:10.479Z,1.45
2023-04-30T09:31:39.009Z,1.13
2023-04-30T09:34:06.493Z,1.42
2023-04-30T09:36:34.736Z,1.10
2023-04-30T09:39:11.475Z,1.20
2023-04-30T09:41:39.885Z,1.40
2023-04-30T09:44:06.855Z,1.75
2023-04-30T09:46:37.458Z,1.77
2023-04-30T09:49:07.371Z,1.67
2023-04-30T09:51:35.867Z,2.20
2023-04-30T09:54:04.749Z,2.65
2023-04-30T09:56:39.598Z,1.50
2023-04-30T09:59:09.265Z,1.90
2023-04-30T10:01:40.349Z,1.73
2023-04-30T10:04:08.912Z,2.00
2023-04-30T10:06:36.529Z,1.55
2023-04-30T10:09:06.786Z,2.20
2023-04-30T10:11:37.873Z,1.27
2023-04-30T10:14:11.938Z,1.13
2023-04-30T10:17:13.641Z,1.60
2023-04-30T10:19:47.828Z,1.58
2023-04-30T10:22:15.023Z,1.60
2023-04-30T10:24:43.746Z,1.73
2023-04-30T10:27:10.834Z,1.52
2023-04-30T10:29:38.215Z,1.48
2023-04-30T10:32:06.410Z,2.28
2023-04-30T10:34:42.839Z,1.00
2023-04-30T10:37:18.752Z,2.15
2023-04-30T10:39:47.221Z,0.88
2023-04-30T10:42:14.332Z,1.98
2023-04-30T10:44:41.291Z,1.83
2023-04-30T10:47:08.705Z,7.82
2023-04-30T10:49:36.264Z,1.52
2023-04-30T10:52:05.267Z,1.25
2023-04-30T10:54:35.238Z,0.80
2023-04-30T10:57:14.433Z,1.25
2023-04-30T10:59:53.363Z,0.98
2023-04-30T11:02:21.570Z,0.90
2023-04-30T11:05:10.371Z,0.77
2023-04-30T11:07:37.805Z,1.17
2023-04-30T11:10:08.992Z,0.60
2023-04-30T11:12:41.225Z,0.82
2023-04-30T11:15:14.133Z,0.60
2023-04-30T11:17:43.283Z,0.65
2023-04-30T11:20:13.219Z,0.68
2023-04-30T11:22:40.310Z,1.42
2023-04-30T11:25:09.902Z,0.98
2023-04-30T11:27:38.730Z,0.45
2023-04-30T11:30:12.772Z,1.00
2023-04-30T11:32:40.479Z,0.53
2023-04-30T11:35:08.193Z,1.13
2023-04-30T11:37:37.874Z,0.90
2023-04-30T11:40:11.199Z,1.40
2023-04-30T11:42:39.689Z,0.95
2023-04-30T11:45:07.786Z,2.47
2023-04-30T11:47:45.890Z,0.80
2023-04-30T11:50:29.805Z,4.07
2023-04-30T11:52:58.199Z,7.63
2023-04-30T11:55:26.764Z,1.05
2023-04-30T11:57:56.237Z,2.92
2023-04-30T12:00:28.328Z,0.60
2023-04-30T12:02:56.817Z,0.80
2023-04-30T12:05:26.935Z,0.70
2023-04-30T12:08:06.645Z,0.98
2023-04-30T12:10:34.383Z,0.90
2023-04-30T12:13:01.712Z,0.98
2023-04-30T12:15:29.305Z,0.80
2023-04-30T12:17:58.365Z,0.60
2023-04-30T12:20:28.435Z,1.13
2023-04-30T12:22:56.228Z,1.27
2023-04-30T12:25:23.787Z,1.27
2023-04-30T12:27:52.966Z,1.40
2023-04-30T12:30:21.713Z,0.95
2023-04-30T12:32:53.734Z,0.95
2023-04-30T12:35:25.080Z,3.70
2023-04-30T12:38:01.528Z,2.00
2023-04-30T12:40:28.661Z,0.98
2023-04-30T12:43:02.741Z,0.80
2023-04-30T12:45:48.288Z,2.83
2023-04-30T12:48:16.485Z,1.20
2023-04-30T12:50:48.179Z,1.40
2023-04-30T12:53:15.487Z,1.05
2023-04-30T12:55:42.488Z,1.60
2023-04-30T12:58:12.042Z,0.82
2023-04-30T13:00:44.984Z,1.00
2023-04-30T13:03:13.596Z,1.23
2023-04-30T13:05:42.337Z,1.30
2023-04-30T13:08:09.912Z,1.90
2023-04-30T13:10:36.880Z,1.30
2023-04-30T13:13:03.825Z,1.20
2023-04-30T13:15:31.168Z,1.30
2023-04-30T13:17:58.321Z,1.70
2023-04-30T13:20:25.588Z,0.90
2023-04-30T13:22:52.716Z,1.40
2023-04-30T13:25:20.537Z,1.08
2023-04-30T13:27:47.646Z,1.35
2023-04-30T13:30:14.836Z,1.00
2023-04-30T13:32:43.245Z,1.05
2023-04-30T13:35:11.535Z,0.95
2023-04-30T13:37:39.381Z,1.10
2023-04-30T13:40:08.232Z,1.45
2023-04-30T13:42:38.474Z,1.50
2023-04-30T13:45:09.207Z,0.98
2023-04-30T13:47:36.366Z,1.05
2023-04-30T13:50:04.494Z,2.05
2023-04-30T13:52:31.948Z,3.28
2023-04-30T13:54:59.288Z,6.72
2023-04-30T13:57:26.852Z,1.40
2023-04-30T13:59:54.756Z,2.75
2023-04-30T14:02:22.002Z,1.60
2023-04-30T14:05:02.023Z,2.67
2023-04-30T14:07:29.744Z,1.45
2023-04-30T14:09:56.811Z,1.10
2023-04-30T14:12:24.794Z,1.00
2023-04-30T14:14:51.852Z,1.35
2023-04-30T14:17:19.027Z,1.30
2023-04-30T14:19:46.309Z,1.20
2023-04-30T14:22:13.565Z,1.05
2023-04-30T14:24:40.858Z,2.53
2023-04-30T14:27:08.040Z,1.83
2023-04-30T14:29:35.178Z,1.40
2023-04-30T14:32:02.503Z,2.17
2023-04-30T14:34:29.642Z,1.85
2023-04-30T14:36:59.579Z,1.23
2023-04-30T14:39:27.060Z,1.20
2023-04-30T14:41:54.362Z,2.67
2023-04-30T14:44:24.467Z,2.40
2023-04-30T14:46:51.816Z,6.20
2023-04-30T14:49:19.227Z,3.42
2023-04-30T14:51:46.466Z,2.10
2023-04-30T14:54:13.552Z,0.98
2023-04-30T14:56:41.248Z,3.80
2023-04-30T14:59:08.277Z,1.48
2023-04-30T15:01:35.361Z,1.98
2023-04-30T15:04:02.601Z,3.72
2023-04-30T15:06:29.816Z,1.38
2023-04-30T15:08:56.925Z,1.10
2023-04-30T15:11:24.348Z,1.17
2023-04-30T15:13:51.740Z,1.40
2023-04-30T15:16:18.924Z,1.30
2023-04-30T15:18:46.157Z,1.67
2023-04-30T15:21:13.331Z,1.67
2023-04-30T15:23:40.462Z,1.00
2023-04-30T15:26:07.936Z,1.42
2023-04-30T15:28:35.146Z,4.80
2023-04-30T15:31:03.395Z,3.55
2023-04-30T15:33:31.615Z,4.22
2023-04-30T15:35:59.541Z,2.88
2023-04-30T15:38:26.640Z,1.60
2023-04-30T15:40:53.725Z,1.30
2023-04-30T15:43:21.545Z,1.52
2023-04-30T15:45:48.608Z,1.45
2023-04-30T15:48:16.040Z,1.55
2023-04-30T15:50:43.138Z,2.05
2023-04-30T15:53:10.182Z,1.63
2023-04-30T15:55:37.884Z,1.50
2023-04-30T15:58:04.956Z,1.70
2023-04-30T16:00:33.828Z,3.65
2023-04-30T16:03:01.317Z,1.55
2023-04-30T16:05:28.414Z,1.10
2023-04-30T16:07:55.916Z,1.50
2023-04-30T16:10:27.173Z,1.55
2023-04-30T16:12:54.175Z,1.85
2023-04-30T16:15:21.223Z,1.20
2023-04-30T16:17:48.348Z,1.17
2023-04-30T16:20:15.270Z,1.83
2023-04-30T16:22:42.644Z,3.30
2023-04-30T16:25:10.375Z,1.50
2023-04-30T16:27:37.679Z,3.03
2023-04-30T16:30:06.139Z,2.40
2023-04-30T16:32:33.611Z,2.25
2023-04-30T16:35:00.718Z,2.75
2023-04-30T16:37:29.526Z,1.73
2023-04-30T16:39:57.123Z,1.90
2023-04-30T16:42:24.688Z,2.60
2023-04-30T16:44:51.597Z,3.35
2023-04-30T16:47:19.534Z,4.03
2023-04-30T16:49:46.545Z,3.90
2023-04-30T16:52:13.975Z,2.55
2023-04-30T16:54:41.055Z,2.90
2023-04-30T16:57:08.176Z,4.40
2023-04-30T16:59:35.114Z,4.90
2023-04-30T17:02:02.828Z,4.63
2023-04-30T17:04:29.803Z,2.83
2023-04-30T17:06:57.732Z,2.60
2023-04-30T17:09:24.962Z,6.57
2023-04-30T17:11:51.925Z,5.93
2023-04-30T17:14:19.009Z,3.15
2023-04-30T17:16:47.093Z,9.35
2023-04-30T17:19:14.388Z,2.75
2023-04-30T17:21:41.412Z,5.63
2023-04-30T17:24:08.488Z,3.85
2023-04-30T17:26:35.684Z,2.65
2023-04-30T17:29:02.764Z,1.42
2023-04-30T17:31:31.380Z,3.92
2023-04-30T17:34:00.262Z,17.27
2023-04-30T17:36:30.404Z,6.40
2023-04-30T17:38:57.594Z,4.05
2023-04-30T17:41:24.725Z,2.40
2023-04-30T17:43:51.865Z,4.05
2023-04-30T17:46:18.905Z,1.20
2023-04-30T17:48:46.033Z,10.63
2023-04-30T17:51:13.142Z,76.07
2023-04-30T17:53:40.834Z,50.53
2023-04-30T17:56:09.029Z,7.88
2023-04-30T17:58:37.684Z,1.63
2023-04-30T18:01:06.470Z,1.27
2023-04-30T18:03:33.638Z,1.50
2023-04-30T18:06:00.751Z,1.23
2023-04-30T18:08:27.840Z,1.10
2023-04-30T18:10:55.334Z,1.23
2023-04-30T18:13:22.593Z,1.30
2023-04-30T18:15:49.562Z,1.00
2023-04-30T18:18:16.650Z,1.92
2023-04-30T18:20:43.604Z,1.23
2023-04-30T18:23:10.630Z,1.30
2023-04-30T18:25:37.957Z,1.08
2023-04-30T18:28:05.196Z,1.80
2023-04-30T18:30:32.407Z,3.50
2023-04-30T18:32:59.670Z,4.20
2023-04-30T18:35:28.294Z,3.67
2023-04-30T18:37:55.984Z,2.63
2023-04-30T18:40:23.278Z,2.45
2023-04-30T18:42:50.415Z,1.65
2023-04-30T18:45:18.339Z,15.57
2023-04-30T18:47:45.595Z,2.33
2023-04-30T18:50:17.543Z,4.75
2023-04-30T18:52:45.302Z,1.73
2023-04-30T18:55:14.009Z,3.72
2023-04-30T18:57:42.576Z,1.60
2023-04-30T19:00:12.284Z,3.63
2023-04-30T19:02:39.484Z,3.58
2023-04-30T19:05:07.736Z,2.22
2023-04-30T19:07:34.960Z,2.65
2023-04-30T19:10:03.953Z,1.67
2023-04-30T19:12:31.245Z,2.83
2023-04-30T19:14:58.981Z,1.65
2023-04-30T19:17:26.013Z,1.55
2023-04-30T19:19:53.487Z,1.50
2023-04-30T19:22:20.550Z,1.20
2023-04-30T19:24:47.626Z,1.52
2023-04-30T19:27:14.566Z,1.48
2023-04-30T19:29:41.687Z,1.70
2023-04-30T19:32:09.883Z,1.10
2023-04-30T19:34:36.944Z,1.50
2023-04-30T19:37:03.912Z,1.15
2023-04-30T19:39:31.874Z,1.38
2023-04-30T19:41:59.100Z,1.00
2023-04-30T19:44:26.189Z,1.15
2023-04-30T19:46:53.244Z,1.38
2023-04-30T19:49:20.184Z,1.40
2023-04-30T19:51:47.284Z,1.30
2023-04-30T19:54:14.611Z,1.60
2023-04-30T19:56:42.030Z,2.05
2023-04-30T19:59:09.939Z,1.38
2023-04-30T20:01:37.054Z,1.30
2023-04-30T20:04:04.412Z,1.52
2023-04-30T20:06:31.800Z,1.17
2023-04-30T20:08:59.622Z,1.40
2023-04-30T20:11:26.602Z,1.48
2023-04-30T20:13:55.560Z,1.30
2023-04-30T20:16:23.103Z,1.30
2023-04-30T20:18:50.233Z,1.55
2023-04-30T20:21:19.938Z,1.77
2023-04-30T20:23:47.902Z,2.15
2023-04-30T20:26:14.986Z,1.27
2023-04-30T20:28:42.133Z,1.80
2023-04-30T20:31:09.895Z,1.50
2023-04-30T20:33:37.133Z,2.25
2023-04-30T20:36:04.685Z,1.75
2023-04-30T20:38:31.688Z,1.63
2023-04-30T20:40:59.764Z,1.60
2023-04-30T20:43:26.997Z,1.60
2023-04-30T20:45:57.407Z,1.20
2023-04-30T20:48:25.627Z,1.30
2023-04-30T20:50:52.875Z,1.70
2023-04-30T20:53:20.013Z,1.55
2023-04-30T20:55:47.044Z,1.52
2023-04-30T20:58:14.372Z,1.90
2023-04-30T21:00:41.593Z,1.45
2023-04-30T21:03:09.750Z,1.73
2023-04-30T21:05:36.897Z,1.55
2023-04-30T21:08:04.073Z,2.03
2023-04-30T21:10:36.452Z,2.40
2023-04-30T21:13:09.118Z,2.10
2023-04-30T21:15:36.654Z,1.90
2023-04-30T21:18:04.122Z,2.00
2023-04-30T21:20:31.877Z,1.45
2023-04-30T21:22:59.226Z,1.48
2023-04-30T21:25:26.880Z,1.50
2023-04-30T21:27:53.993Z,1.42
2023-04-30T21:30:25.062Z,1.35
2023-04-30T21:32:58.472Z,1.55
2023-04-30T21:35:27.796Z,1.60
2023-04-30T21:37:55.097Z,1.67
2023-04-30T21:40:22.174Z,1.73
2023-04-30T21:42:49.205Z,1.60
2023-04-30T21:45:20.054Z,1.50
2023-04-30T21:47:47.907Z,1.83
2023-04-30T21:50:15.016Z,1.88
2023-04-30T21:52:42.066Z,2.28
2023-04-30T21:55:09.825Z,1.77
2023-04-30T21:57:36.827Z,1.50
2023-04-30T22:00:07.264Z,1.48
2023-04-30T22:02:37.179Z,1.65
2023-04-30T22:05:04.473Z,1.77
2023-04-30T22:07:31.475Z,1.70
2023-04-30T22:09:58.754Z,1.50
2023-04-30T22:12:26.205Z,1.45
2023-04-30T22:14:54.908Z,1.75
2023-04-30T22:17:22.178Z,1.70
2023-04-30T22:19:49.159Z,1.60
2023-04-30T22:22:16.653Z,1.90
2023-04-30T22:24:43.700Z,2.22
2023-04-30T22:27:13.582Z,2.63
2023-04-30T22:29:41.369Z,1.88
2023-04-30T22:32:09.544Z,1.70
2023-04-30T22:34:39.399Z,1.70
2023-04-30T22:37:07.228Z,2.20
2023-04-30T22:39:34.170Z,2.47
2023-04-30T22:42:01.158Z,2.00
2023-04-30T22:44:29.860Z,3.28
2023-04-30T22:46:58.250Z,4.47
2023-04-30T22:49:31.242Z,4.18
2023-04-30T22:51:59.269Z,2.53
2023-04-30T22:54:26.409Z,2.65
2023-04-30T22:56:53.443Z,2.17
2023-04-30T22:59:20.519Z,3.50
2023-04-30T23:01:47.630Z,1.50
2023-04-30T23:04:14.674Z,1.70
2023-04-30T23:06:43.052Z,1.65
2023-04-30T23:09:10.411Z,1.95
2023-04-30T23:11:37.388Z,2.10
2023-04-30T23:14:04.844Z,1.85
2023-04-30T23:16:32.062Z,1.77
2023-04-30T23:18:59.299Z,2.40
2023-04-30T23:21:26.950Z,4.18
2023-04-30T23:23:54.082Z,2.03
2023-04-30T23:26:21.468Z,3.20
2023-04-30T23:28:51.780Z,2.08
2023-04-30T23:31:18.799Z,1.75
2023-04-30T23:33:49.849Z,2.10
2023-04-30T23:36:16.891Z,2.00
2023-04-30T23:38:44.106Z,2.58
2023-04-30T23:41:11.117Z,2.28
2023-04-30T23:43:38.306Z,3.20
2023-04-30T23:46:05.758Z,2.47
2023-04-30T23:48:32.795Z,2.47
2023-04-30T23:51:05.075Z,2.20
2023-04-30T23:53:32.350Z,2.20
2023-04-30T23:56:02.439Z,2.63
2023-04-30T23:58:32.532Z,1.40
